createdAt,value
2022-09-27T00:00:49.995Z,96833.38
2022-09-27T00:03:38.125Z,96824.72
2022-09-27T00:06:08.905Z,96830.38
2022-09-27T00:08:38.176Z,96825.66
2022-09-27T00:11:09.065Z,96824.38
2022-09-27T00:13:37.249Z,96827.06
2022-09-27T00:16:06.031Z,96825.09
2022-09-27T00:18:35.165Z,96825.09
2022-09-27T00:21:10.345Z,96829.16
2022-09-27T00:23:39.396Z,96823.06
2022-09-27T00:26:08.752Z,96812.28
2022-09-27T00:28:36.623Z,96817.38
2022-09-27T00:31:05.044Z,96815.59
2022-09-27T00:33:33.162Z,96811.06
2022-09-27T00:36:05.505Z,96800.41
2022-09-27T00:38:35.041Z,96796.47
2022-09-27T00:41:03.154Z,96793.41
2022-09-27T00:43:44.899Z,96783.44
2022-09-27T00:46:16.304Z,96793.56
2022-09-27T00:48:44.113Z,96783.75
2022-09-27T00:51:11.925Z,96777.63
2022-09-27T00:53:46.449Z,96781.03
2022-09-27T00:56:19.504Z,96778.78
2022-09-27T00:58:51.613Z,96764.44
2022-09-27T01:01:19.592Z,96775.91
2022-09-27T01:03:52.407Z,96764.81
2022-09-27T01:06:22.507Z,96764.03
2022-09-27T01:08:52.157Z,96766.88
2022-09-27T01:11:32.981Z,96757.44
2022-09-27T01:14:13.705Z,96762.78
2022-09-27T01:16:55.972Z,96757.00
2022-09-27T01:19:46.040Z,96757.19
2022-09-27T01:22:18.601Z,96750.81
2022-09-27T01:25:04.191Z,96746.00
2022-09-27T01:28:01.643Z,96746.81
2022-09-27T01:30:39.582Z,96748.47
2022-09-27T01:33:15.274Z,96745.66
2022-09-27T01:35:58.945Z,96733.75
2022-09-27T01:38:35.248Z,96734.38
2022-09-27T01:41:09.931Z,96730.25
2022-09-27T01:43:45.593Z,96721.94
2022-09-27T01:46:21.196Z,96719.59
2022-09-27T01:48:51.886Z,96724.06
2022-09-27T01:51:24.277Z,96717.16
2022-09-27T01:53:54.629Z,96709.63
2022-09-27T01:56:27.998Z,96708.19
2022-09-27T01:59:02.132Z,96711.97
2022-09-27T02:01:36.858Z,96705.06
2022-09-27T02:04:08.225Z,96697.97
2022-09-27T02:06:40.878Z,96702.50
2022-09-27T02:09:13.469Z,96701.91
2022-09-27T02:11:53.989Z,96704.00
2022-09-27T02:14:29.085Z,96704.44
2022-09-27T02:17:05.916Z,96705.28
2022-09-27T02:19:42.184Z,96693.88
2022-09-27T02:22:16.935Z,96695.47
2022-09-27T02:24:49.645Z,96701.22
2022-09-27T02:27:25.227Z,96704.38
2022-09-27T02:30:00.404Z,96691.47
2022-09-27T02:32:30.170Z,96690.25
2022-09-27T02:35:02.618Z,96685.50
2022-09-27T02:37:31.334Z,96687.75
2022-09-27T02:39:59.377Z,96686.69
2022-09-27T02:42:28.910Z,96680.69
2022-09-27T02:44:57.078Z,96673.78
2022-09-27T02:47:49.774Z,96661.84
2022-09-27T02:50:38.470Z,96658.88
2022-09-27T02:53:15.970Z,96660.69
2022-09-27T02:55:52.075Z,96664.47
2022-09-27T02:58:29.390Z,96659.91
2022-09-27T03:01:06.177Z,96663.91
2022-09-27T03:03:42.269Z,96657.00
2022-09-27T03:06:12.965Z,96661.00
2022-09-27T03:08:41.155Z,96662.41
2022-09-27T03:11:09.980Z,96672.56
2022-09-27T03:14:01.368Z,96674.53
2022-09-27T03:16:27.613Z,96672.28
2022-09-27T03:18:57.085Z,96659.88
2022-09-27T03:21:24.874Z,96652.19
2022-09-27T03:23:52.741Z,96645.31
2022-09-27T03:26:21.178Z,96645.31
2022-09-27T03:28:49.067Z,96652.63
2022-09-27T03:31:17.028Z,96651.25
2022-09-27T03:33:45.142Z,96653.47
2022-09-27T03:36:14.254Z,96647.88
2022-09-27T03:38:42.259Z,96647.78
2022-09-27T03:41:10.360Z,96646.66
2022-09-27T03:43:38.742Z,96649.09
2022-09-27T03:46:06.802Z,96646.66
2022-09-27T03:48:34.859Z,96650.56
2022-09-27T03:51:02.552Z,96644.25
2022-09-27T03:53:31.974Z,96638.44
2022-09-27T03:56:00.688Z,96628.00
2022-09-27T03:58:28.629Z,96633.81
2022-09-27T04:00:56.412Z,96621.78
2022-09-27T04:03:26.186Z,96631.44
2022-09-27T04:05:53.928Z,96629.53
2022-09-27T04:08:22.273Z,96610.94
2022-09-27T04:10:51.653Z,96613.38
2022-09-27T04:13:19.397Z,96608.22
2022-09-27T04:15:51.880Z,96615.03
2022-09-27T04:18:20.489Z,96606.75
2022-09-27T04:20:48.309Z,96606.75
2022-09-27T04:23:15.997Z,96607.47
2022-09-27T04:25:44.070Z,96600.84
2022-09-27T04:28:13.460Z,96606.56
2022-09-27T04:30:41.306Z,96611.78
2022-09-27T04:33:09.418Z,96612.34
2022-09-27T04:35:55.269Z,96620.28
2022-09-27T04:38:24.071Z,96616.63
2022-09-27T04:40:51.982Z,96613.56
2022-09-27T04:43:21.183Z,96611.47
2022-09-27T04:45:49.270Z,96608.84
2022-09-27T04:48:17.110Z,96607.19
2022-09-27T04:50:44.835Z,96604.31
2022-09-27T04:53:14.943Z,96595.50
2022-09-27T04:55:47.329Z,96601.34
2022-09-27T04:58:15.450Z,96600.22
2022-09-27T05:00:45.134Z,96594.72
2022-09-27T05:03:13.900Z,96596.91
2022-09-27T05:05:42.334Z,96596.56
2022-09-27T05:08:10.734Z,96590.88
2022-09-27T05:10:39.140Z,96577.50
2022-09-27T05:13:07.468Z,96582.34
2022-09-27T05:15:36.184Z,96585.03
2022-09-27T05:18:05.467Z,96577.78
2022-09-27T05:20:33.546Z,96583.63
2022-09-27T05:23:01.434Z,96584.75
2022-09-27T05:25:29.359Z,96583.78
2022-09-27T05:27:57.538Z,96580.50
2022-09-27T05:30:25.384Z,96583.00
2022-09-27T05:32:53.694Z,96575.53
2022-09-27T05:35:23.356Z,96570.91
2022-09-27T05:37:55.308Z,96573.00
2022-09-27T05:40:40.138Z,96576.91
2022-09-27T05:43:09.710Z,96575.53
2022-09-27T05:45:37.851Z,96574.13
2022-09-27T05:48:05.876Z,96578.69
2022-09-27T05:50:35.112Z,96572.16
2022-09-27T05:53:03.125Z,96572.81
2022-09-27T05:55:31.184Z,96568.91
2022-09-27T05:58:00.777Z,96570.16
2022-09-27T06:00:29.614Z,96568.81
2022-09-27T06:02:59.084Z,96573.50
2022-09-27T06:05:28.643Z,96561.97
2022-09-27T06:08:01.566Z,96578.44
2022-09-27T06:10:31.024Z,96580.16
2022-09-27T06:13:03.269Z,96582.59
2022-09-27T06:15:32.853Z,96580.38
2022-09-27T06:18:06.015Z,96585.22
2022-09-27T06:20:33.914Z,96590.00
2022-09-27T06:23:08.397Z,96589.34
2022-09-27T06:25:36.605Z,96581.53
2022-09-27T06:28:05.114Z,96580.84
2022-09-27T06:30:33.571Z,96582.44
2022-09-27T06:33:02.864Z,96581.38
2022-09-27T06:35:31.122Z,96578.25
2022-09-27T06:37:59.225Z,96572.84
2022-09-27T06:40:28.658Z,96580.34
2022-09-27T06:43:03.177Z,96578.03
2022-09-27T06:45:31.710Z,96576.19
2022-09-27T06:48:02.344Z,96574.38
2022-09-27T06:50:30.336Z,96576.13
2022-09-27T06:52:58.353Z,96573.03
2022-09-27T06:55:27.953Z,96580.13
2022-09-27T06:58:13.211Z,96575.47
2022-09-27T07:00:42.210Z,96570.06
2022-09-27T07:03:11.464Z,96577.44
2022-09-27T07:05:39.345Z,96574.84
2022-09-27T07:08:07.461Z,96560.06
2022-09-27T07:10:37.685Z,96571.78
2022-09-27T07:13:07.414Z,96570.28
2022-09-27T07:15:37.181Z,96561.00
2022-09-27T07:18:07.145Z,96575.06
2022-09-27T07:20:37.174Z,96576.91
2022-09-27T07:23:06.002Z,96578.44
2022-09-27T07:25:34.477Z,96577.31
2022-09-27T07:28:05.161Z,96581.31
2022-09-27T07:30:33.506Z,96574.31
2022-09-27T07:33:03.501Z,96575.91
2022-09-27T07:35:31.531Z,96578.25
2022-09-27T07:38:00.109Z,96580.94
2022-09-27T07:40:28.152Z,96580.59
2022-09-27T07:42:56.790Z,96579.00
2022-09-27T07:45:26.913Z,96579.03
2022-09-27T07:47:54.682Z,96576.31
2022-09-27T07:50:22.663Z,96568.56
2022-09-27T07:52:51.975Z,96567.81
2022-09-27T07:55:20.772Z,96553.78
2022-09-27T07:57:48.466Z,96561.25
2022-09-27T08:00:19.721Z,96563.59
2022-09-27T08:02:48.774Z,96565.94
2022-09-27T08:05:16.916Z,96564.66
2022-09-27T08:07:44.776Z,96564.16
2022-09-27T08:10:12.659Z,96554.75
2022-09-27T08:12:40.698Z,96553.91
2022-09-27T08:15:09.970Z,96556.63
2022-09-27T08:17:37.694Z,96555.78
2022-09-27T08:20:07.616Z,96560.75
2022-09-27T08:22:41.252Z,96557.69
2022-09-27T08:25:10.389Z,96556.78
2022-09-27T08:27:38.209Z,96548.81
2022-09-27T08:30:07.010Z,96547.19
2022-09-27T08:32:35.133Z,96547.88
2022-09-27T08:35:02.912Z,96550.91
2022-09-27T08:37:32.294Z,96548.50
2022-09-27T08:40:00.514Z,96552.72
2022-09-27T08:42:35.034Z,96560.34
2022-09-27T08:45:12.638Z,96555.31
2022-09-27T08:47:44.632Z,96554.50
2022-09-27T08:50:20.043Z,96551.16
2022-09-27T08:52:54.694Z,96544.34
2022-09-27T08:55:28.729Z,96542.91
2022-09-27T08:57:58.696Z,96541.84
2022-09-27T09:00:28.714Z,96551.88
2022-09-27T09:02:56.903Z,96539.94
2022-09-27T09:05:30.269Z,96544.00
2022-09-27T09:08:27.371Z,96532.38
2022-09-27T09:11:21.038Z,96533.50
2022-09-27T09:14:13.448Z,96532.09
2022-09-27T09:16:48.586Z,96531.59
2022-09-27T09:19:38.162Z,96528.97
2022-09-27T09:22:19.753Z,96534.91
2022-09-27T09:25:03.857Z,96521.91
2022-09-27T09:27:41.069Z,96516.91
2022-09-27T09:30:22.601Z,96511.88
2022-09-27T09:33:06.825Z,96517.91
2022-09-27T09:35:40.838Z,96518.78
2022-09-27T09:38:16.919Z,96508.97
2022-09-27T09:40:51.644Z,96490.94
2022-09-27T09:43:24.655Z,96487.38
2022-09-27T09:45:58.927Z,96485.75
2022-09-27T09:48:33.609Z,96473.44
2022-09-27T09:51:08.725Z,96465.25
2022-09-27T09:53:43.028Z,96470.59
2022-09-27T09:56:19.304Z,96469.81
2022-09-27T09:58:52.757Z,96465.28
2022-09-27T10:01:24.161Z,96459.22
2022-09-27T10:03:52.190Z,96447.47
2022-09-27T10:06:20.522Z,96447.59
2022-09-27T10:08:50.030Z,96442.00
2022-09-27T10:11:23.800Z,96446.78
2022-09-27T10:13:52.394Z,96436.38
2022-09-27T10:16:21.889Z,96439.63
2022-09-27T10:18:52.888Z,96437.19
2022-09-27T10:21:23.673Z,96429.34
2022-09-27T10:24:15.003Z,96438.06
2022-09-27T10:26:50.964Z,96430.41
2022-09-27T10:29:32.568Z,96424.09
2022-09-27T10:32:06.658Z,96420.53
2022-09-27T10:34:36.838Z,96425.13
2022-09-27T10:37:17.637Z,96426.59
2022-09-27T10:39:47.553Z,96421.06
2022-09-27T10:42:31.546Z,96414.38
2022-09-27T10:45:00.185Z,96414.66
2022-09-27T10:47:29.896Z,96410.16
2022-09-27T10:50:06.744Z,96414.44
2022-09-27T10:52:35.034Z,96413.97
2022-09-27T10:55:09.111Z,96413.00
2022-09-27T10:57:44.338Z,96411.69
2022-09-27T11:00:24.346Z,96414.84
2022-09-27T11:02:55.073Z,96414.03
2022-09-27T11:05:35.093Z,96405.50
2022-09-27T11:08:23.166Z,96401.09
2022-09-27T11:11:07.758Z,96401.38
2022-09-27T11:13:37.862Z,96399.09
2022-09-27T11:16:36.514Z,96395.34
2022-09-27T11:19:16.273Z,96400.22
2022-09-27T11:21:52.961Z,96398.81
2022-09-27T11:24:33.203Z,96394.94
2022-09-27T11:27:11.970Z,96393.81
2022-09-27T11:29:55.162Z,96386.22
2022-09-27T11:32:35.439Z,96384.53
2022-09-27T11:35:27.726Z,96375.47
2022-09-27T11:38:08.474Z,96380.81
2022-09-27T11:40:48.137Z,96374.94
2022-09-27T11:43:30.755Z,96377.16
2022-09-27T11:46:17.856Z,96369.63
2022-09-27T11:49:26.126Z,96369.75
2022-09-27T11:52:17.706Z,96367.31
2022-09-27T11:55:00.545Z,96360.94
2022-09-27T11:57:35.665Z,96353.75
2022-09-27T12:00:13.043Z,96357.38
2022-09-27T12:03:02.779Z,96357.03
2022-09-27T12:05:37.688Z,96357.81
2022-09-27T12:08:19.905Z,96344.25
2022-09-27T12:10:51.981Z,96339.38
2022-09-27T12:13:34.645Z,96338.75
2022-09-27T12:16:04.731Z,96336.34
2022-09-27T12:18:39.041Z,96337.41
2022-09-27T12:21:09.785Z,96334.75
2022-09-27T12:23:42.639Z,96339.69
2022-09-27T12:26:14.992Z,96338.31
2022-09-27T12:28:52.023Z,96327.41
2022-09-27T12:31:29.838Z,96326.53
2022-09-27T12:34:16.209Z,96334.63
2022-09-27T12:36:51.446Z,96332.63
2022-09-27T12:39:23.795Z,96321.38
2022-09-27T12:42:02.211Z,96327.81
2022-09-27T12:44:38.754Z,96322.56
2022-09-27T12:47:14.093Z,96322.38
2022-09-27T12:49:49.982Z,96317.34
2022-09-27T12:52:25.400Z,96320.13
2022-09-27T12:55:16.049Z,96311.09
2022-09-27T12:57:54.202Z,96308.44
2022-09-27T13:00:25.114Z,96309.75
2022-09-27T13:03:26.322Z,96314.41
2022-09-27T13:06:21.158Z,96306.69
2022-09-27T13:09:07.335Z,96309.97
2022-09-27T13:11:44.004Z,96300.16
2022-09-27T13:14:19.163Z,96299.44
2022-09-27T13:16:48.583Z,96298.56
2022-09-27T13:19:43.282Z,96296.06
2022-09-27T13:22:38.208Z,96296.97
2022-09-27T13:25:39.925Z,96297.69
2022-09-27T13:28:36.589Z,96305.59
2022-09-27T13:31:06.780Z,96299.19
2022-09-27T13:33:43.389Z,96295.84
2022-09-27T13:36:35.788Z,96302.56
2022-09-27T13:39:17.292Z,96298.81
2022-09-27T13:42:07.371Z,96310.88
2022-09-27T13:44:55.318Z,96305.34
2022-09-27T13:47:32.920Z,96299.84
2022-09-27T13:50:15.239Z,96302.84
2022-09-27T13:52:45.996Z,96299.13
2022-09-27T13:55:41.489Z,96300.25
2022-09-27T13:58:35.162Z,96291.00
2022-09-27T14:01:11.271Z,96287.75
2022-09-27T14:03:45.969Z,96294.13
2022-09-27T14:06:18.826Z,96283.91
2022-09-27T14:08:51.901Z,96294.56
2022-09-27T14:11:26.938Z,96289.88
2022-09-27T14:13:55.993Z,96284.88
2022-09-27T14:16:24.080Z,96278.34
2022-09-27T14:18:57.600Z,96276.03
2022-09-27T14:21:32.189Z,96287.81
2022-09-27T14:24:26.688Z,96284.72
2022-09-27T14:27:14.269Z,96281.28
2022-09-27T14:29:46.630Z,96287.78
2022-09-27T14:32:17.588Z,96279.63
2022-09-27T14:34:46.042Z,96279.22
2022-09-27T14:37:26.348Z,96289.06
2022-09-27T14:40:00.181Z,96287.97
2022-09-27T14:42:32.907Z,96299.31
2022-09-27T14:45:05.614Z,96293.41
2022-09-27T14:47:37.581Z,96300.88
2022-09-27T14:50:19.652Z,96312.84
2022-09-27T14:52:49.478Z,96318.28
2022-09-27T14:55:19.288Z,96326.19
2022-09-27T14:57:51.801Z,96330.88
2022-09-27T15:00:22.343Z,96332.34
2022-09-27T15:02:55.486Z,96327.63
2022-09-27T15:05:25.314Z,96327.78
2022-09-27T15:07:55.722Z,96319.47
2022-09-27T15:10:27.280Z,96335.97
2022-09-27T15:12:59.871Z,96347.19
2022-09-27T15:15:31.283Z,96341.22
2022-09-27T15:18:00.198Z,96363.75
2022-09-27T15:20:34.691Z,96364.72
2022-09-27T15:23:05.543Z,96367.47
2022-09-27T15:25:37.481Z,96362.41
2022-09-27T15:28:15.497Z,96367.03
2022-09-27T15:30:50.277Z,96360.00
2022-09-27T15:33:21.178Z,96352.94
2022-09-27T15:35:53.434Z,96347.50
2022-09-27T15:38:27.496Z,96345.97
2022-09-27T15:41:01.406Z,96359.19
2022-09-27T15:43:33.752Z,96359.19
2022-09-27T15:46:03.711Z,96360.72
2022-09-27T15:48:33.576Z,96361.44
2022-09-27T15:51:03.152Z,96364.50
2022-09-27T15:53:46.498Z,96361.44
2022-09-27T15:56:16.441Z,96367.25
2022-09-27T15:58:45.798Z,96369.59
2022-09-27T16:01:19.621Z,96355.16
2022-09-27T16:03:48.868Z,96362.94
2022-09-27T16:06:16.585Z,96364.13
2022-09-27T16:08:45.229Z,96369.13
2022-09-27T16:11:17.117Z,96368.34
2022-09-27T16:13:46.597Z,96368.31
2022-09-27T16:16:20.269Z,96371.44
2022-09-27T16:18:48.861Z,96364.47
2022-09-27T16:21:17.558Z,96364.88
2022-09-27T16:23:45.242Z,96386.28
2022-09-27T16:26:13.753Z,96386.28
2022-09-27T16:28:41.796Z,96380.44
2022-09-27T16:31:11.361Z,96382.75
2022-09-27T16:33:39.635Z,96390.16
2022-09-27T16:36:14.270Z,96386.28
2022-09-27T16:38:42.384Z,96397.22
2022-09-27T16:41:10.516Z,96399.56
2022-09-27T16:43:38.197Z,96409.66
2022-09-27T16:46:09.325Z,96402.22
2022-09-27T16:48:38.924Z,96411.19
2022-09-27T16:51:25.329Z,96414.28
2022-09-27T16:53:53.459Z,96419.00
2022-09-27T16:56:21.348Z,96426.38
2022-09-27T16:58:49.153Z,96415.44
2022-09-27T17:01:17.680Z,96418.06
2022-09-27T17:03:52.604Z,96401.75
2022-09-27T17:06:24.422Z,96403.69
2022-09-27T17:08:52.641Z,96407.19
2022-09-27T17:11:21.566Z,96410.28
2022-09-27T17:13:50.152Z,96404.06
2022-09-27T17:16:18.042Z,96403.72
2022-09-27T17:18:47.216Z,96401.47
2022-09-27T17:21:15.877Z,96407.31
2022-09-27T17:23:43.801Z,96398.38
2022-09-27T17:26:17.212Z,96407.34
2022-09-27T17:28:46.365Z,96415.84
2022-09-27T17:31:17.514Z,96412.75
2022-09-27T17:33:48.805Z,96408.88
2022-09-27T17:36:19.167Z,96419.00
2022-09-27T17:38:48.452Z,96424.38
2022-09-27T17:41:18.291Z,96420.19
2022-09-27T17:43:49.886Z,96408.13
2022-09-27T17:46:19.969Z,96410.09
2022-09-27T17:49:07.954Z,96415.94
2022-09-27T17:51:38.139Z,96424.50
2022-09-27T17:54:08.006Z,96417.06
2022-09-27T17:56:40.043Z,96429.19
2022-09-27T17:59:10.446Z,96428.00
2022-09-27T18:01:39.307Z,96435.81
2022-09-27T18:04:10.886Z,96431.53
2022-09-27T18:06:41.055Z,96431.16
2022-09-27T18:09:10.641Z,96429.97
2022-09-27T18:11:39.690Z,96437.78
2022-09-27T18:14:10.428Z,96440.84
2022-09-27T18:16:40.957Z,96433.00
2022-09-27T18:19:12.833Z,96443.94
2022-09-27T18:21:40.632Z,96442.34
2022-09-27T18:24:08.873Z,96441.53
2022-09-27T18:26:38.647Z,96447.00
2022-09-27T18:29:08.905Z,96456.00
2022-09-27T18:31:37.402Z,96447.75
2022-09-27T18:34:05.327Z,96457.13
2022-09-27T18:36:34.422Z,96456.34
2022-09-27T18:39:03.898Z,96459.84
2022-09-27T18:41:33.683Z,96461.41
2022-09-27T18:44:03.389Z,96456.31
2022-09-27T18:46:35.806Z,96459.44
2022-09-27T18:49:05.636Z,96462.19
2022-09-27T18:51:37.467Z,96461.06
2022-09-27T18:54:09.526Z,96466.09
2022-09-27T18:56:39.394Z,96459.50
2022-09-27T18:59:09.468Z,96460.28
2022-09-27T19:01:39.670Z,96462.59
2022-09-27T19:04:09.189Z,96458.34
2022-09-27T19:06:39.253Z,96464.22
2022-09-27T19:09:08.131Z,96457.19
2022-09-27T19:11:36.230Z,96471.19
2022-09-27T19:14:04.187Z,96457.94
2022-09-27T19:16:32.191Z,96468.88
2022-09-27T19:19:00.418Z,96466.50
2022-09-27T19:21:30.407Z,96464.53
2022-09-27T19:23:59.752Z,96464.50
2022-09-27T19:26:28.140Z,96468.72
2022-09-27T19:28:58.729Z,96459.00
2022-09-27T19:31:29.437Z,96454.25
2022-09-27T19:34:00.361Z,96472.63
2022-09-27T19:36:29.028Z,96469.88
2022-09-27T19:38:58.559Z,96468.72
2022-09-27T19:41:28.876Z,96471.03
2022-09-27T19:43:57.567Z,96463.28
2022-09-27T19:46:26.662Z,96467.88
2022-09-27T19:48:56.055Z,96467.13
2022-09-27T19:51:25.273Z,96464.00
2022-09-27T19:53:54.152Z,96458.59
2022-09-27T19:56:22.798Z,96458.94
2022-09-27T19:58:52.076Z,96460.91
2022-09-27T20:01:22.139Z,96459.38
2022-09-27T20:03:52.178Z,96464.50
2022-09-27T20:06:21.619Z,96461.81
2022-09-27T20:08:52.404Z,96461.00
2022-09-27T20:11:21.929Z,96455.59
2022-09-27T20:13:52.805Z,96462.56
2022-09-27T20:16:22.616Z,96459.38
2022-09-27T20:18:52.978Z,96461.75
2022-09-27T20:21:22.309Z,96463.31
2022-09-27T20:23:51.353Z,96460.16
2022-09-27T20:26:21.157Z,96457.03
2022-09-27T20:28:50.604Z,96464.06
2022-09-27T20:31:22.204Z,96470.28
2022-09-27T20:33:51.055Z,96463.28
2022-09-27T20:36:21.873Z,96455.84
2022-09-27T20:38:51.374Z,96466.97
2022-09-27T20:41:21.622Z,96466.31
2022-09-27T20:43:53.071Z,96467.03
2022-09-27T20:46:24.439Z,96464.72
2022-09-27T20:48:53.772Z,96460.84
2022-09-27T20:51:22.390Z,96466.31
2022-09-27T20:53:51.854Z,96468.59
2022-09-27T20:56:21.473Z,96465.06
2022-09-27T20:58:49.917Z,96474.81
2022-09-27T21:01:19.961Z,96475.97
2022-09-27T21:03:53.677Z,96467.06
2022-09-27T21:06:22.968Z,96471.78
2022-09-27T21:08:51.430Z,96480.31
2022-09-27T21:11:20.692Z,96477.97
2022-09-27T21:13:50.270Z,96467.81
2022-09-27T21:16:19.604Z,96470.94
2022-09-27T21:18:51.569Z,96472.47
2022-09-27T21:21:20.085Z,96475.66
2022-09-27T21:23:48.890Z,96476.34
2022-09-27T21:26:18.157Z,96462.72
2022-09-27T21:28:48.589Z,96453.31
2022-09-27T21:31:22.490Z,96462.34
2022-09-27T21:33:54.543Z,96463.16
2022-09-27T21:36:24.221Z,96449.91
2022-09-27T21:38:52.469Z,96464.34
2022-09-27T21:41:20.461Z,96456.94
2022-09-27T21:43:49.929Z,96460.84
2022-09-27T21:46:19.710Z,96455.72
2022-09-27T21:48:49.479Z,96455.38
2022-09-27T21:51:20.742Z,96442.44
2022-09-27T21:53:52.142Z,96441.69
2022-09-27T21:56:20.499Z,96454.19
2022-09-27T21:58:48.545Z,96457.69
2022-09-27T22:01:19.090Z,96447.59
2022-09-27T22:03:48.027Z,96451.47
2022-09-27T22:06:18.694Z,96445.28
2022-09-27T22:08:48.400Z,96450.63
2022-09-27T22:11:18.101Z,96446.03
2022-09-27T22:13:46.251Z,96452.19
2022-09-27T22:16:16.577Z,96448.31
2022-09-27T22:18:45.141Z,96453.72
2022-09-27T22:21:14.805Z,96449.78
2022-09-27T22:23:45.453Z,96451.00
2022-09-27T22:26:14.551Z,96454.50
2022-09-27T22:28:42.957Z,96461.13
2022-09-27T22:31:11.989Z,96465.81
2022-09-27T22:33:39.732Z,96463.88
2022-09-27T22:36:08.024Z,96456.16
2022-09-27T22:38:36.120Z,96462.81
2022-09-27T22:41:05.350Z,96460.84
2022-09-27T22:43:33.142Z,96460.03
2022-09-27T22:46:01.434Z,96461.63
2022-09-27T22:48:30.643Z,96456.97
2022-09-27T22:50:59.696Z,96463.59
2022-09-27T22:53:29.043Z,96454.63
2022-09-27T22:56:01.827Z,96461.22
2022-09-27T22:58:34.205Z,96463.59
2022-09-27T23:01:08.817Z,96463.13
2022-09-27T23:03:37.287Z,96450.72
2022-09-27T23:06:06.977Z,96463.13
2022-09-27T23:08:36.073Z,96458.47
2022-09-27T23:11:06.309Z,96456.88
2022-09-27T23:13:37.480Z,96451.75
2022-09-27T23:16:07.862Z,96452.19
2022-09-27T23:18:37.185Z,96459.16
2022-09-27T23:21:08.222Z,96452.19
2022-09-27T23:23:38.011Z,96454.47
2022-09-27T23:26:08.356Z,96461.50
2022-09-27T23:28:37.767Z,96466.16
2022-09-27T23:31:08.264Z,96465.38
2022-09-27T23:33:36.906Z,96462.28
2022-09-27T23:36:05.063Z,96463.84
2022-09-27T23:38:33.883Z,96477.84
2022-09-27T23:41:02.019Z,96477.06
2022-09-27T23:43:30.040Z,96486.38
2022-09-27T23:45:59.414Z,96484.84
2022-09-27T23:48:27.708Z,96469.25
2022-09-27T23:50:56.711Z,96471.97
2022-09-27T23:53:25.470Z,96470.69
2022-09-27T23:56:03.694Z,96469.25
2022-09-27T23:58:34.056Z,96461.41
